sensor_id;sensor_type;location;lat;lon;timestamp;pressure;altitude;pressure_sealevel;temperature;humidity
35443;BME280;21561;55.654;37.592;2023-09-19T00:00:48;99848.66;;;11.07;100.00
35443;BME280;21561;55.654;37.592;2023-09-19T00:03:16;99859.91;;;11.05;100.00
35443;BME280;21561;55.654;37.592;2023-09-19T00:05:44;99853.88;;;11.04;100.00
35443;BME280;21561;55.654;37.592;2023-09-19T00:08:12;99857.31;;;11.03;100.00
35443;BME280;21561;55.654;37.592;2023-09-19T00:10:42;99859.94;;;11.02;100.00
35443;BME280;21561;55.654;37.592;2023-09-19T00:13:10;99859.06;;;11.00;100.00
35443;BME280;21561;55.654;37.592;2023-09-19T00:15:47;99854.75;;;11.02;100.00
35443;BME280;21561;55.654;37.592;2023-09-19T00:18:19;99861.72;;;10.97;100.00
35443;BME280;21561;55.654;37.592;2023-09-19T00:20:48;99856.53;;;10.94;100.00
35443;BME280;21561;55.654;37.592;2023-09-19T00:23:16;99854.78;;;10.93;100.00
35443;BME280;21561;55.654;37.592;2023-09-19T00:25:43;99852.22;;;10.89;100.00
35443;BME280;21561;55.654;37.592;2023-09-19T00:28:10;99852.22;;;10.86;100.00
35443;BME280;21561;55.654;37.592;2023-09-19T00:30:38;99853.97;;;10.86;100.00
35443;BME280;21561;55.654;37.592;2023-09-19T00:33:05;99854.81;;;10.89;100.00
35443;BME280;21561;55.654;37.592;2023-09-19T00:35:34;99849.59;;;10.93;100.00
35443;BME280;21561;55.654;37.592;2023-09-19T00:38:01;99852.19;;;10.97;100.00
35443;BME280;21561;55.654;37.592;2023-09-19T00:40:28;99856.47;;;11.03;100.00
35443;BME280;21561;55.654;37.592;2023-09-19T00:42:59;99868.53;;;11.13;100.00
35443;BME280;21561;55.654;37.592;2023-09-19T00:45:27;99861.59;;;11.18;100.00
35443;BME280;21561;55.654;37.592;2023-09-19T00:47:55;99865.88;;;11.24;100.00
35443;BME280;21561;55.654;37.592;2023-09-19T00:50:25;99866.69;;;11.31;100.00
35443;BME280;21561;55.654;37.592;2023-09-19T00:52:56;99866.66;;;11.37;100.00
35443;BME280;21561;55.654;37.592;2023-09-19T00:55:24;99850.22;;;11.36;100.00
35443;BME280;21561;55.654;37.592;2023-09-19T00:57:51;99869.25;;;11.38;100.00
35443;BME280;21561;55.654;37.592;2023-09-19T01:00:19;99861.41;;;11.43;100.00
35443;BME280;21561;55.654;37.592;2023-09-19T01:02:47;99856.19;;;11.46;100.00
35443;BME280;21561;55.654;37.592;2023-09-19T01:05:15;99853.56;;;11.49;100.00
35443;BME280;21561;55.654;37.592;2023-09-19T01:07:43;99849.22;;;11.51;100.00
35443;BME280;21561;55.654;37.592;2023-09-19T01:10:18;99852.66;;;11.53;100.00
35443;BME280;21561;55.654;37.592;2023-09-19T01:16:03;99852.66;;;11.53;100.00
35443;BME280;21561;55.654;37.592;2023-09-19T01:19:26;99849.16;;;11.57;100.00
35443;BME280;21561;55.654;37.592;2023-09-19T01:22:22;99850.06;;;11.56;100.00
35443;BME280;21561;55.654;37.592;2023-09-19T01:30:22;99853.59;;;11.46;100.00
35443;BME280;21561;55.654;37.592;2023-09-19T01:32:51;99854.47;;;11.45;100.00
35443;BME280;21561;55.654;37.592;2023-09-19T01:35:21;99847.56;;;11.42;100.00
35443;BME280;21561;55.654;37.592;2023-09-19T01:37:48;99845.84;;;11.40;100.00
35443;BME280;21561;55.654;37.592;2023-09-19T01:40:18;99847.56;;;11.41;100.00
35443;BME280;21561;55.654;37.592;2023-09-19T01:51:06;99829.50;;;11.25;100.00
35443;BME280;21561;55.654;37.592;2023-09-19T01:56:05;99835.63;;;11.15;100.00
35443;BME280;21561;55.654;37.592;2023-09-19T01:58:40;99830.44;;;11.12;100.00
35443;BME280;21561;55.654;37.592;2023-09-19T02:01:11;99824.41;;;11.07;100.00
35443;BME280;21561;55.654;37.592;2023-09-19T02:03:43;99829.66;;;11.01;100.00
35443;BME280;21561;55.654;37.592;2023-09-19T02:06:14;99820.13;;;11.00;100.00
35443;BME280;21561;55.654;37.592;2023-09-19T02:08:42;99814.13;;;10.92;100.00
35443;BME280;21561;55.654;37.592;2023-09-19T02:11:09;99816.75;;;10.88;100.00
35443;BME280;21561;55.654;37.592;2023-09-19T02:13:36;99820.22;;;10.84;100.00
35443;BME280;21561;55.654;37.592;2023-09-19T02:16:05;99813.34;;;10.80;100.00
35443;BME280;21561;55.654;37.592;2023-09-19T02:18:33;99816.78;;;10.76;100.00
35443;BME280;21561;55.654;37.592;2023-09-19T02:21:03;99817.69;;;10.74;100.00
35443;BME280;21561;55.654;37.592;2023-09-19T02:23:39;99813.34;;;10.71;100.00
35443;BME280;21561;55.654;37.592;2023-09-19T02:26:06;99805.63;;;10.68;100.00
35443;BME280;21561;55.654;37.592;2023-09-19T02:28:33;99804.72;;;10.69;100.00
35443;BME280;21561;55.654;37.592;2023-09-19T02:31:02;99808.22;;;10.68;100.00
35443;BME280;21561;55.654;37.592;2023-09-19T02:33:32;99809.06;;;10.65;100.00
35443;BME280;21561;55.654;37.592;2023-09-19T02:35:59;99814.25;;;10.65;100.00
35443;BME280;21561;55.654;37.592;2023-09-19T02:38:28;99811.66;;;10.64;100.00
35443;BME280;21561;55.654;37.592;2023-09-19T02:40:56;99809.09;;;10.62;100.00
35443;BME280;21561;55.654;37.592;2023-09-19T02:43:23;99818.59;;;10.62;100.00
35443;BME280;21561;55.654;37.592;2023-09-19T02:45:50;99813.44;;;10.59;100.00
35443;BME280;21561;55.654;37.592;2023-09-19T02:48:20;99812.56;;;10.58;100.00
35443;BME280;21561;55.654;37.592;2023-09-19T02:50:50;99813.41;;;10.62;100.00
35443;BME280;21561;55.654;37.592;2023-09-19T02:53:17;99809.13;;;10.58;100.00
35443;BME280;21561;55.654;37.592;2023-09-19T02:55:46;99818.59;;;10.62;100.00
35443;BME280;21561;55.654;37.592;2023-09-19T02:58:14;99814.28;;;10.59;100.00
35443;BME280;21561;55.654;37.592;2023-09-19T03:00:42;99818.63;;;10.59;100.00
35443;BME280;21561;55.654;37.592;2023-09-19T03:03:09;99816.03;;;10.53;100.00
35443;BME280;21561;55.654;37.592;2023-09-19T03:05:36;99812.59;;;10.50;100.00
35443;BME280;21561;55.654;37.592;2023-09-19T03:08:05;99820.41;;;10.44;100.00
35443;BME280;21561;55.654;37.592;2023-09-19T03:10:32;99810.06;;;10.38;100.00
35443;BME280;21561;55.654;37.592;2023-09-19T03:12:59;99818.72;;;10.34;100.00
35443;BME280;21561;55.654;37.592;2023-09-19T03:15:26;99823.91;;;10.31;100.00
35443;BME280;21561;55.654;37.592;2023-09-19T03:17:53;99813.50;;;10.28;100.00
35443;BME280;21561;55.654;37.592;2023-09-19T03:20:20;99812.66;;;10.27;100.00
35443;BME280;21561;55.654;37.592;2023-09-19T03:22:48;99809.22;;;10.24;100.00
35443;BME280;21561;55.654;37.592;2023-09-19T03:25:15;99817.00;;;10.21;100.00
35443;BME280;21561;55.654;37.592;2023-09-19T03:27:44;99807.50;;;10.18;100.00
35443;BME280;21561;55.654;37.592;2023-09-19T03:30:11;99817.88;;;10.15;100.00
35443;BME280;21561;55.654;37.592;2023-09-19T03:32:44;99811.84;;;10.15;100.00
35443;BME280;21561;55.654;37.592;2023-09-19T03:35:13;99817.00;;;10.08;100.00
35443;BME280;21561;55.654;37.592;2023-09-19T03:37:41;99810.13;;;10.10;100.00
35443;BME280;21561;55.654;37.592;2023-09-19T03:40:10;99810.97;;;10.12;100.00
35443;BME280;21561;55.654;37.592;2023-09-19T03:42:40;99804.91;;;10.13;100.00
35443;BME280;21561;55.654;37.592;2023-09-19T03:45:08;99812.69;;;10.15;100.00
35443;BME280;21561;55.654;37.592;2023-09-19T03:47:42;99813.53;;;10.17;100.00
35443;BME280;21561;55.654;37.592;2023-09-19T03:50:09;99804.91;;;10.20;100.00
35443;BME280;21561;55.654;37.592;2023-09-19T03:52:42;99804.06;;;10.18;100.00
35443;BME280;21561;55.654;37.592;2023-09-19T03:55:09;99810.94;;;10.19;100.00
35443;BME280;21561;55.654;37.592;2023-09-19T03:57:37;99809.25;;;10.16;100.00
35443;BME280;21561;55.654;37.592;2023-09-19T04:00:04;99813.53;;;10.17;100.00
35443;BME280;21561;55.654;37.592;2023-09-19T04:02:32;99804.91;;;10.20;100.00
35443;BME280;21561;55.654;37.592;2023-09-19T04:04:59;99808.34;;;10.22;100.00
35443;BME280;21561;55.654;37.592;2023-09-19T04:07:28;99806.63;;;10.24;100.00
35443;BME280;21561;55.654;37.592;2023-09-19T04:09:55;99810.06;;;10.26;100.00
35443;BME280;21561;55.654;37.592;2023-09-19T04:12:22;99810.06;;;10.26;100.00
35443;BME280;21561;55.654;37.592;2023-09-19T04:14:49;99804.88;;;10.23;100.00
35443;BME280;21561;55.654;37.592;2023-09-19T04:17:16;99789.31;;;10.23;100.00
35443;BME280;21561;55.654;37.592;2023-09-19T04:19:45;99792.78;;;10.22;100.00
35443;BME280;21561;55.654;37.592;2023-09-19T04:22:12;99792.78;;;10.23;100.00
35443;BME280;21561;55.654;37.592;2023-09-19T04:24:39;99797.97;;;10.25;100.00
35443;BME280;21561;55.654;37.592;2023-09-19T04:27:06;99789.31;;;10.26;100.00
35443;BME280;21561;55.654;37.592;2023-09-19T04:29:33;99787.59;;;10.31;100.00
35443;BME280;21561;55.654;37.592;2023-09-19T04:32:01;99782.38;;;10.37;100.00
35443;BME280;21561;55.654;37.592;2023-09-19T04:34:33;99784.09;;;10.41;100.00
35443;BME280;21561;55.654;37.592;2023-09-19T04:37:01;99785.81;;;10.45;100.00
35443;BME280;21561;55.654;37.592;2023-09-19T04:39:28;99777.13;;;10.49;100.00
35443;BME280;21561;55.654;37.592;2023-09-19T04:41:55;99775.44;;;10.52;100.00
35443;BME280;21561;55.654;37.592;2023-09-19T04:44:22;99777.13;;;10.56;100.00
35443;BME280;21561;55.654;37.592;2023-09-19T04:46:49;99772.78;;;10.58;100.00
35443;BME280;21561;55.654;37.592;2023-09-19T04:49:17;99782.31;;;10.59;100.00
35443;BME280;21561;55.654;37.592;2023-09-19T04:51:45;99787.50;;;10.56;100.00
35443;BME280;21561;55.654;37.592;2023-09-19T04:54:13;99785.75;;;10.58;100.00
35443;BME280;21561;55.654;37.592;2023-09-19T04:56:42;99777.97;;;10.61;100.00
35443;BME280;21561;55.654;37.592;2023-09-19T04:59:09;99777.06;;;10.65;100.00
35443;BME280;21561;55.654;37.592;2023-09-19T05:01:37;99773.63;;;10.66;100.00
35443;BME280;21561;55.654;37.592;2023-09-19T05:04:04;99778.78;;;10.69;100.00
35443;BME280;21561;55.654;37.592;2023-09-19T05:06:32;99770.97;;;10.75;100.00
35443;BME280;21561;55.654;37.592;2023-09-19T05:09:00;99770.06;;;10.81;100.00
35443;BME280;21561;55.654;37.592;2023-09-19T05:11:26;99772.59;;;10.87;100.00
35443;BME280;21561;55.654;37.592;2023-09-19T05:14:00;99771.69;;;10.93;100.00
35443;BME280;21561;55.654;37.592;2023-09-19T05:16:30;99764.81;;;10.92;100.00
35443;BME280;21561;55.654;37.592;2023-09-19T05:19:01;99770.84;;;10.94;100.00
35443;BME280;21561;55.654;37.592;2023-09-19T05:21:28;99764.78;;;10.95;100.00
35443;BME280;21561;55.654;37.592;2023-09-19T05:23:57;99759.59;;;10.95;100.00
35443;BME280;21561;55.654;37.592;2023-09-19T05:26:24;99766.50;;;10.96;100.00
35443;BME280;21561;55.654;37.592;2023-09-19T05:28:51;99762.16;;;10.96;100.00
35443;BME280;21561;55.654;37.592;2023-09-19T05:31:19;99752.63;;;11.00;100.00
35443;BME280;21561;55.654;37.592;2023-09-19T05:33:47;99757.78;;;11.06;100.00
35443;BME280;21561;55.654;37.592;2023-09-19T05:36:14;99753.44;;;11.08;100.00
35443;BME280;21561;55.654;37.592;2023-09-19T05:38:43;99760.31;;;11.11;100.00
35443;BME280;21561;55.654;37.592;2023-09-19T05:41:11;99761.22;;;11.10;100.00
35443;BME280;21561;55.654;37.592;2023-09-19T05:43:40;99756.03;;;11.08;100.00
35443;BME280;21561;55.654;37.592;2023-09-19T05:46:08;99750.84;;;11.05;100.00
35443;BME280;21561;55.654;37.592;2023-09-19T05:48:35;99756.94;;;11.05;100.00
35443;BME280;21561;55.654;37.592;2023-09-19T05:51:02;99756.03;;;11.08;100.00
35443;BME280;21561;55.654;37.592;2023-09-19T05:53:29;99751.69;;;11.10;100.00
35443;BME280;21561;55.654;37.592;2023-09-19T05:55:56;99740.44;;;11.11;100.00
35443;BME280;21561;55.654;37.592;2023-09-19T05:58:23;99747.31;;;11.15;100.00
35443;BME280;21561;55.654;37.592;2023-09-19T06:00:50;99747.25;;;11.21;100.00
35443;BME280;21561;55.654;37.592;2023-09-19T06:03:17;99751.56;;;11.27;100.00
35443;BME280;21561;55.654;37.592;2023-09-19T06:05:45;99751.50;;;11.33;100.00
35443;BME280;21561;55.654;37.592;2023-09-19T06:08:16;99761.81;;;11.39;100.00
35443;BME280;21561;55.654;37.592;2023-09-19T06:10:43;99758.34;;;11.45;100.00
35443;BME280;21561;55.654;37.592;2023-09-19T06:13:10;99740.94;;;11.50;100.00
35443;BME280;21561;55.654;37.592;2023-09-19T06:15:37;99741.75;;;11.58;100.00
35443;BME280;21561;55.654;37.592;2023-09-19T06:18:04;99747.75;;;11.67;100.00
35443;BME280;21561;55.654;37.592;2023-09-19T06:20:32;99741.59;;;11.74;100.00
35443;BME280;21561;55.654;37.592;2023-09-19T06:23:00;99741.53;;;11.80;100.00
35443;BME280;21561;55.654;37.592;2023-09-19T06:25:29;99737.13;;;11.87;100.00
35443;BME280;21561;55.654;37.592;2023-09-19T06:27:56;99744.84;;;11.97;100.00
35443;BME280;21561;55.654;37.592;2023-09-19T06:30:24;99741.22;;;12.08;100.00
35443;BME280;21561;55.654;37.592;2023-09-19T06:32:59;99739.31;;;12.22;100.00
35443;BME280;21561;55.654;37.592;2023-09-19T06:35:27;99745.28;;;12.32;100.00
35443;BME280;21561;55.654;37.592;2023-09-19T06:37:56;99732.13;;;12.44;100.00
35443;BME280;21561;55.654;37.592;2023-09-19T06:40:25;99719.81;;;12.57;100.00
35443;BME280;21561;55.654;37.592;2023-09-19T06:42:52;99720.47;;;12.71;100.00
35443;BME280;21561;55.654;37.592;2023-09-19T06:45:20;99724.56;;;12.88;100.00
35443;BME280;21561;55.654;37.592;2023-09-19T06:47:50;99739.88;;;13.06;100.00
35443;BME280;21561;55.654;37.592;2023-09-19T06:50:19;99745.81;;;13.16;100.00
35443;BME280;21561;55.654;37.592;2023-09-19T06:52:53;99749.06;;;13.30;100.00
35443;BME280;21561;55.654;37.592;2023-09-19T06:55:22;99744.59;;;13.40;100.00
35443;BME280;21561;55.654;37.592;2023-09-19T06:57:55;99728.84;;;13.46;100.00
35443;BME280;21561;55.654;37.592;2023-09-19T07:00:22;99746.16;;;13.50;100.00
35443;BME280;21561;55.654;37.592;2023-09-19T07:03:04;99739.00;;;13.62;100.00
35443;BME280;21561;55.654;37.592;2023-09-19T07:05:35;99732.13;;;13.58;100.00
35443;BME280;21561;55.654;37.592;2023-09-19T07:08:11;99739.75;;;13.68;100.00
35443;BME280;21561;55.654;37.592;2023-09-19T07:10:40;99735.28;;;13.75;100.00
35443;BME280;21561;55.654;37.592;2023-09-19T07:13:08;99738.75;;;13.74;99.59
35443;BME280;21561;55.654;37.592;2023-09-19T07:15:38;99745.59;;;13.81;99.88
35443;BME280;21561;55.654;37.592;2023-09-19T07:18:06;99735.88;;;13.89;99.54
35443;BME280;21561;55.654;37.592;2023-09-19T07:20:33;99726.16;;;13.96;99.11
35443;BME280;21561;55.654;37.592;2023-09-19T07:23:01;99722.53;;;14.05;98.69
35443;BME280;21561;55.654;37.592;2023-09-19T07:25:29;99727.63;;;14.11;98.09
35443;BME280;21561;55.654;37.592;2023-09-19T07:27:57;99732.84;;;14.11;97.96
35443;BME280;21561;55.654;37.592;2023-09-19T07:30:27;99724.13;;;14.12;98.65
35443;BME280;21561;55.654;37.592;2023-09-19T07:32:54;99724.06;;;14.15;98.91
35443;BME280;21561;55.654;37.592;2023-09-19T07:35:22;99732.53;;;14.26;98.52
35443;BME280;21561;55.654;37.592;2023-09-19T07:37:49;99728.56;;;14.49;97.62
35443;BME280;21561;55.654;37.592;2023-09-19T07:40:19;99736.84;;;14.69;96.71
35443;BME280;21561;55.654;37.592;2023-09-19T07:42:47;99737.53;;;14.78;95.77
35443;BME280;21561;55.654;37.592;2023-09-19T07:45:14;99731.34;;;14.82;94.84
35443;BME280;21561;55.654;37.592;2023-09-19T07:47:45;99729.41;;;14.90;94.82
35443;BME280;21561;55.654;37.592;2023-09-19T07:50:13;99730.16;;;14.97;94.20
35443;BME280;21561;55.654;37.592;2023-09-19T07:52:40;99720.25;;;15.10;93.64
35443;BME280;21561;55.654;37.592;2023-09-19T07:55:07;99719.22;;;15.15;93.33
35443;BME280;21561;55.654;37.592;2023-09-19T07:57:35;99710.41;;;15.19;93.07
35443;BME280;21561;55.654;37.592;2023-09-19T08:00:03;99706.81;;;15.23;92.98
35443;BME280;21561;55.654;37.592;2023-09-19T08:02:35;99707.59;;;15.27;92.93
35443;BME280;21561;55.654;37.592;2023-09-19T08:05:08;99710.31;;;15.24;92.56
35443;BME280;21561;55.654;37.592;2023-09-19T08:07:39;99702.47;;;15.24;92.64
35443;BME280;21561;55.654;37.592;2023-09-19T08:10:08;99697.25;;;15.24;91.93
35443;BME280;21561;55.654;37.592;2023-09-19T08:12:40;99690.28;;;15.23;91.92
35443;BME280;21561;55.654;37.592;2023-09-19T08:15:17;99686.75;;;15.25;92.40
35443;BME280;21561;55.654;37.592;2023-09-19T08:17:44;99685.75;;;15.30;91.85
35443;BME280;21561;55.654;37.592;2023-09-19T08:20:12;99692.59;;;15.35;91.69
35443;BME280;21561;55.654;37.592;2023-09-19T08:22:49;99693.16;;;15.46;91.28
35443;BME280;21561;55.654;37.592;2023-09-19T08:25:16;99686.84;;;15.54;91.19
35443;BME280;21561;55.654;37.592;2023-09-19T08:27:45;99692.47;;;15.74;90.62
35443;BME280;21561;55.654;37.592;2023-09-19T08:30:17;99686.75;;;15.91;89.54
35443;BME280;21561;55.654;37.592;2023-09-19T08:32:44;99680.91;;;16.11;88.72
35443;BME280;21561;55.654;37.592;2023-09-19T08:35:13;99684.44;;;16.40;87.81
35443;BME280;21561;55.654;37.592;2023-09-19T08:37:42;99695.34;;;16.54;86.32
35443;BME280;21561;55.654;37.592;2023-09-19T08:40:12;99675.06;;;16.61;85.86
35443;BME280;21561;55.654;37.592;2023-09-19T08:42:48;99679.38;;;16.64;85.54
35443;BME280;21561;55.654;37.592;2023-09-19T08:45:17;99676.19;;;16.52;86.01
35443;BME280;21561;55.654;37.592;2023-09-19T08:47:53;99674.38;;;16.54;85.81
35443;BME280;21561;55.654;37.592;2023-09-19T08:50:26;99672.88;;;16.47;86.02
35443;BME280;21561;55.654;37.592;2023-09-19T08:53:01;99671.88;;;16.51;86.09
35443;BME280;21561;55.654;37.592;2023-09-19T08:55:29;99669.56;;;16.42;86.47
35443;BME280;21561;55.654;37.592;2023-09-19T08:58:00;99665.84;;;16.49;86.23
35443;BME280;21561;55.654;37.592;2023-09-19T09:00:28;99664.13;;;16.48;86.17
35443;BME280;21561;55.654;37.592;2023-09-19T09:02:58;99663.81;;;16.57;85.98
35443;BME280;21561;55.654;37.592;2023-09-19T09:05:25;99662.13;;;16.56;85.51
35443;BME280;21561;55.654;37.592;2023-09-19T09:07:54;99660.47;;;16.52;85.40
35443;BME280;21561;55.654;37.592;2023-09-19T09:10:23;99660.47;;;16.52;85.47
35443;BME280;21561;55.654;37.592;2023-09-19T09:12:52;99662.94;;;16.58;85.56
35443;BME280;21561;55.654;37.592;2023-09-19T09:15:21;99654.19;;;16.58;86.03
35443;BME280;21561;55.654;37.592;2023-09-19T09:17:52;99644.47;;;16.61;86.69
35443;BME280;21561;55.654;37.592;2023-09-19T09:20:22;99646.13;;;16.66;86.43
35443;BME280;21561;55.654;37.592;2023-09-19T09:22:53;99655.44;;;16.74;86.08
35443;BME280;21561;55.654;37.592;2023-09-19T09:25:21;99661.44;;;16.78;85.68
35443;BME280;21561;55.654;37.592;2023-09-19T09:28:01;99654.88;;;16.93;86.10
35443;BME280;21561;55.654;37.592;2023-09-19T09:30:36;99662.78;;;16.91;85.36
35443;BME280;21561;55.654;37.592;2023-09-19T09:33:14;99658.19;;;16.98;86.05
35443;BME280;21561;55.654;37.592;2023-09-19T09:38:20;99658.81;;;17.05;85.36
35443;BME280;21561;55.654;37.592;2023-09-19T09:40:49;99660.22;;;17.15;84.57
35443;BME280;21561;55.654;37.592;2023-09-19T09:43:33;99643.75;;;17.36;84.10
35443;BME280;21561;55.654;37.592;2023-09-19T09:46:15;99644.03;;;17.78;83.06
35443;BME280;21561;55.654;37.592;2023-09-19T09:49:05;99632.19;;;18.15;80.84
35443;BME280;21561;55.654;37.592;2023-09-19T09:51:50;99638.31;;;18.37;79.03
35443;BME280;21561;55.654;37.592;2023-09-19T09:54:28;99639.56;;;18.50;78.39
35443;BME280;21561;55.654;37.592;2023-09-19T09:57:01;99638.91;;;18.66;77.95
35443;BME280;21561;55.654;37.592;2023-09-19T09:59:47;99628.66;;;18.82;77.22
35443;BME280;21561;55.654;37.592;2023-09-19T10:02:18;99632.56;;;18.94;77.16
35443;BME280;21561;55.654;37.592;2023-09-19T10:04:52;99631.78;;;19.12;76.67
35443;BME280;21561;55.654;37.592;2023-09-19T10:07:29;99627.84;;;19.43;75.81
35443;BME280;21561;55.654;37.592;2023-09-19T10:10:01;99631.88;;;19.71;74.17
35443;BME280;21561;55.654;37.592;2023-09-19T10:12:39;99626.44;;;19.94;73.00
35443;BME280;21561;55.654;37.592;2023-09-19T10:15:10;99625.22;;;20.20;72.56
35443;BME280;21561;55.654;37.592;2023-09-19T10:17:39;99620.84;;;20.38;71.25
35443;BME280;21561;55.654;37.592;2023-09-19T10:20:12;99621.25;;;20.67;70.44
35443;BME280;21561;55.654;37.592;2023-09-19T10:23:00;99612.56;;;21.35;68.00
35443;BME280;21561;55.654;37.592;2023-09-19T10:25:28;99603.03;;;21.50;66.70
35443;BME280;21561;55.654;37.592;2023-09-19T10:27:56;99597.88;;;21.80;65.62
35443;BME280;21561;55.654;37.592;2023-09-19T10:30:26;99600.13;;;22.36;63.31
35443;BME280;21561;55.654;37.592;2023-09-19T10:33:03;99596.47;;;22.84;62.11
35443;BME280;21561;55.654;37.592;2023-09-19T10:35:32;99592.22;;;23.27;59.64
35443;BME280;21561;55.654;37.592;2023-09-19T10:38:00;99587.13;;;23.81;58.04
35443;BME280;21561;55.654;37.592;2023-09-19T10:40:28;99574.94;;;24.47;56.37
35443;BME280;21561;55.654;37.592;2023-09-19T10:43:04;99571.25;;;25.15;54.83
35443;BME280;21561;55.654;37.592;2023-09-19T10:45:34;99556.22;;;25.29;53.11
35443;BME280;21561;55.654;37.592;2023-09-19T10:48:02;99550.28;;;25.25;52.15
35443;BME280;21561;55.654;37.592;2023-09-19T10:50:37;99544.81;;;25.52;51.79
35443;BME280;21561;55.654;37.592;2023-09-19T10:53:08;99551.09;;;25.39;51.92
35443;BME280;21561;55.654;37.592;2023-09-19T10:55:37;99539.78;;;25.74;50.56
35443;BME280;21561;55.654;37.592;2023-09-19T10:58:05;99550.44;;;25.74;50.42
35443;BME280;21561;55.654;37.592;2023-09-19T11:00:52;99544.59;;;26.05;50.54
35443;BME280;21561;55.654;37.592;2023-09-19T11:03:21;99527.78;;;26.53;48.93
35443;BME280;21561;55.654;37.592;2023-09-19T11:14:29;99520.53;;;28.04;46.39
35443;BME280;21561;55.654;37.592;2023-09-19T11:25:46;99567.69;;;27.35;46.96
35443;BME280;21561;55.654;37.592;2023-09-19T11:30:50;99515.47;;;27.10;45.73
35443;BME280;21561;55.654;37.592;2023-09-19T11:33:27;99544.78;;;27.33;46.39
35443;BME280;21561;55.654;37.592;2023-09-19T11:35:59;99518.63;;;27.15;45.58
35443;BME280;21561;55.654;37.592;2023-09-19T11:49:18;99521.22;;;26.81;46.18
35443;BME280;21561;55.654;37.592;2023-09-19T11:51:51;99515.69;;;27.07;46.02
35443;BME280;21561;55.654;37.592;2023-09-19T11:54:21;99510.16;;;27.33;45.20
35443;BME280;21561;55.654;37.592;2023-09-19T11:56:52;99505.78;;;27.54;44.40
35443;BME280;21561;55.654;37.592;2023-09-19T11:59:25;99501.66;;;27.73;44.48
35443;BME280;21561;55.654;37.592;2023-09-19T12:02:00;99496.84;;;27.55;44.23
35443;BME280;21561;55.654;37.592;2023-09-19T12:04:38;99518.16;;;27.44;44.74
35443;BME280;21561;55.654;37.592;2023-09-19T12:07:08;99529.75;;;27.09;45.29
35443;BME280;21561;55.654;37.592;2023-09-19T12:09:47;99534.81;;;27.01;45.92
35443;BME280;21561;55.654;37.592;2023-09-19T12:12:25;99547.53;;;27.20;46.65
35443;BME280;21561;55.654;37.592;2023-09-19T12:14:57;99532.09;;;26.78;46.56
35443;BME280;21561;55.654;37.592;2023-09-19T12:17:38;99511.59;;;27.14;45.88
35443;BME280;21561;55.654;37.592;2023-09-19T12:20:06;99516.88;;;26.92;46.24
35443;BME280;21561;55.654;37.592;2023-09-19T12:22:44;99495.88;;;27.22;45.70
35443;BME280;21561;55.654;37.592;2023-09-19T12:25:14;99497.09;;;27.41;45.38
35443;BME280;21561;55.654;37.592;2023-09-19T12:27:44;99490.69;;;27.32;45.16
35443;BME280;21561;55.654;37.592;2023-09-19T12:30:14;99460.19;;;27.80;44.50
35443;BME280;21561;55.654;37.592;2023-09-19T12:32:47;99428.88;;;28.26;43.41
35443;BME280;21561;55.654;37.592;2023-09-19T12:35:31;99448.03;;;28.73;43.41
35443;BME280;21561;55.654;37.592;2023-09-19T12:38:02;99434.66;;;28.10;42.91
35443;BME280;21561;55.654;37.592;2023-09-19T12:40:31;99456.50;;;28.04;43.53
35443;BME280;21561;55.654;37.592;2023-09-19T12:43:01;99447.97;;;28.10;43.18
35443;BME280;21561;55.654;37.592;2023-09-19T12:45:31;99478.38;;;27.75;43.92
35443;BME280;21561;55.654;37.592;2023-09-19T12:48:21;99493.63;;;28.28;44.33
35443;BME280;21561;55.654;37.592;2023-09-19T12:51:11;99461.41;;;28.41;44.20
35443;BME280;21561;55.654;37.592;2023-09-19T12:53:44;99471.50;;;27.61;43.72
35443;BME280;21561;55.654;37.592;2023-09-19T12:56:14;99503.28;;;27.30;45.13
35443;BME280;21561;55.654;37.592;2023-09-19T12:58:56;99524.19;;;27.35;46.07
35443;BME280;21561;55.654;37.592;2023-09-19T13:01:24;99508.66;;;26.95;46.16
35443;BME280;21561;55.654;37.592;2023-09-19T13:04:17;99500.69;;;27.17;46.16
35443;BME280;21561;55.654;37.592;2023-09-19T13:06:49;99550.19;;;25.77;48.55
35443;BME280;21561;55.654;37.592;2023-09-19T13:09:17;99521.25;;;25.85;49.22
35443;BME280;21561;55.654;37.592;2023-09-19T13:11:44;99501.09;;;26.06;48.91
35443;BME280;21561;55.654;37.592;2023-09-19T13:14:19;99490.38;;;26.43;47.92
35443;BME280;21561;55.654;37.592;2023-09-19T13:17:04;99494.72;;;26.69;48.08
35443;BME280;21561;55.654;37.592;2023-09-19T13:19:40;99509.41;;;26.26;48.86
35443;BME280;21561;55.654;37.592;2023-09-19T13:22:39;99501.00;;;26.08;49.35
35443;BME280;21561;55.654;37.592;2023-09-19T13:25:10;99510.00;;;25.31;52.06
35443;BME280;21561;55.654;37.592;2023-09-19T13:27:56;99487.91;;;25.81;51.29
35443;BME280;21561;55.654;37.592;2023-09-19T13:30:25;99479.66;;;26.21;49.89
35443;BME280;21561;55.654;37.592;2023-09-19T13:33:06;99479.69;;;26.32;49.91
35443;BME280;21561;55.654;37.592;2023-09-19T13:35:34;99469.56;;;26.37;49.33
35443;BME280;21561;55.654;37.592;2023-09-19T13:38:00;99487.91;;;26.29;49.11
35443;BME280;21561;55.654;37.592;2023-09-19T13:40:28;99473.72;;;26.53;48.99
35443;BME280;21561;55.654;37.592;2023-09-19T13:42:58;99466.28;;;26.80;48.45
35443;BME280;21561;55.654;37.592;2023-09-19T13:45:25;99460.97;;;26.80;48.46
35443;BME280;21561;55.654;37.592;2023-09-19T13:47:53;99450.94;;;27.07;47.75
35443;BME280;21561;55.654;37.592;2023-09-19T13:50:20;99446.94;;;27.12;47.64
35443;BME280;21561;55.654;37.592;2023-09-19T13:52:51;99455.91;;;27.00;48.06
35443;BME280;21561;55.654;37.592;2023-09-19T13:55:18;99469.41;;;26.63;49.32